Time;durP1;ratioP1;P1;durP2;ratioP2;P2;SDS_P1;SDS_P2;PMS_P1;PMS_P2;Temp;Humidity;BMP_temperature;BMP_pressure;BME280_temperature;BME280_humidity;BME280_pressure;Samples;Min_cycle;Max_cycle;Signal;HPM_P1;HPM_P2
2022/03/14 00:01:31;;;;;;;21.70;10.90;;;5.40;29.60;;;;;;5205083;28;20445;-50
2022/03/14 00:04:02;;;;;;;23.60;11.67;;;5.40;29.60;;;;;;5204055;28;20472;-49
2022/03/14 00:06:35;;;;;;;21.57;11.40;;;5.30;29.70;;;;;;5207347;28;20429;-51
2022/03/14 00:09:07;;;;;;;26.33;11.23;;;5.30;29.70;;;;;;5223041;28;20460;-49
2022/03/14 00:11:38;;;;;;;30.20;12.57;;;5.40;29.70;;;;;;5218771;28;20457;-49
2022/03/14 00:14:09;;;;;;;25.60;12.40;;;5.40;29.80;;;;;;5221628;28;20515;-51
2022/03/14 00:16:41;;;;;;;18.63;10.53;;;5.30;29.70;;;;;;5203357;28;20186;-50
2022/03/14 00:19:13;;;;;;;19.50;11.00;;;5.30;29.70;;;;;;5222050;28;20441;-50
2022/03/14 00:21:45;;;;;;;25.37;10.90;;;5.30;29.80;;;;;;5206036;28;21028;-52
2022/03/14 00:24:16;;;;;;;22.77;11.53;;;5.30;29.80;;;;;;5219175;28;20444;-49
2022/03/14 00:26:46;;;;;;;21.10;11.50;;;5.30;29.90;;;;;;5204025;28;20941;-51
2022/03/14 00:29:18;;;;;;;20.23;11.17;;;5.20;29.90;;;;;;5202879;28;20213;-50
2022/03/14 00:31:49;;;;;;;26.93;12.93;;;5.30;29.90;;;;;;5205183;28;20213;-52
2022/03/14 00:34:19;;;;;;;22.43;11.37;;;5.30;29.80;;;;;;5206427;28;20426;-50
2022/03/14 00:36:50;;;;;;;25.87;12.47;;;5.30;29.80;;;;;;5204314;28;20179;-49
2022/03/14 00:39:21;;;;;;;26.40;12.70;;;5.20;29.80;;;;;;5206673;28;20187;-50
2022/03/14 00:41:51;;;;;;;29.77;12.83;;;5.20;29.90;;;;;;5225901;28;20469;-50
2022/03/14 00:44:22;;;;;;;25.30;11.63;;;5.20;29.90;;;;;;5225181;28;20669;-50
2022/03/14 00:46:52;;;;;;;19.50;11.27;;;5.20;30.00;;;;;;5208599;28;20199;-50
2022/03/14 00:49:23;;;;;;;18.13;12.73;;;5.20;30.00;;;;;;5211218;28;20667;-51
2022/03/14 00:51:53;;;;;;;26.90;13.27;;;5.20;30.00;;;;;;5224320;28;20317;-50
2022/03/14 00:54:24;;;;;;;30.83;13.60;;;5.20;30.00;;;;;;5226220;28;20191;-53
2022/03/14 00:56:54;;;;;;;27.43;13.73;;;5.10;29.90;;;;;;5227848;28;20201;-51
2022/03/14 00:59:27;;;;;;;28.37;13.00;;;5.10;29.90;;;;;;5228508;28;20184;-50
2022/03/14 01:01:58;;;;;;;27.53;12.30;;;5.10;30.10;;;;;;5211602;28;20208;-50
2022/03/14 01:04:28;;;;;;;17.70;11.23;;;5.00;30.10;;;;;;5210562;28;20440;-51
2022/03/14 01:07:00;;;;;;;23.60;12.10;;;5.10;30.10;;;;;;5227253;28;20265;-51
2022/03/14 01:09:31;;;;;;;26.30;11.90;;;5.00;30.10;;;;;;5209185;28;20175;-50
2022/03/14 01:12:02;;;;;;;24.23;12.63;;;5.00;30.30;;;;;;5225424;28;21594;-51
2022/03/14 01:14:32;;;;;;;33.30;11.87;;;4.90;30.30;;;;;;5206601;28;20433;-50
2022/03/14 01:17:03;;;;;;;27.70;11.90;;;4.90;30.40;;;;;;5209774;28;20187;-50
2022/03/14 01:19:34;;;;;;;23.00;12.20;;;4.80;30.60;;;;;;5209791;28;20179;-49
2022/03/14 01:22:10;;;;;;;31.47;13.63;;;4.80;30.70;;;;;;5191229;28;20207;-51
2022/03/14 01:24:42;;;;;;;24.67;12.13;;;4.80;30.90;;;;;;5226088;28;20201;-49
2022/03/14 01:27:13;;;;;;;25.43;12.07;;;4.70;30.80;;;;;;5209301;28;20430;-51
2022/03/14 01:29:43;;;;;;;21.20;11.40;;;4.70;31.00;;;;;;5225476;28;20428;-48
2022/03/14 01:32:14;;;;;;;31.10;13.40;;;4.70;31.00;;;;;;5224436;28;20210;-49
2022/03/14 01:34:44;;;;;;;26.10;12.27;;;4.60;31.00;;;;;;5190603;28;20191;-50
2022/03/14 01:37:18;;;;;;;23.10;10.67;;;4.70;31.10;;;;;;5207189;28;20206;-51
2022/03/14 01:39:49;;;;;;;27.07;12.10;;;4.60;31.20;;;;;;5208454;28;20200;-51
2022/03/14 01:42:20;;;;;;;28.70;12.17;;;4.60;31.80;;;;;;5225137;28;20494;-50
2022/03/14 01:44:51;;;;;;;28.67;12.30;;;4.60;31.40;;;;;;5224391;28;20578;-49
2022/03/14 01:47:21;;;;;;;27.30;12.90;;;4.50;31.30;;;;;;5211965;28;20453;-49
2022/03/14 01:49:52;;;;;;;19.47;11.73;;;4.50;31.40;;;;;;5210844;28;20175;-50
2022/03/14 01:52:23;;;;;;;29.03;11.60;;;4.50;31.50;;;;;;5227765;28;20737;-50
2022/03/14 01:54:54;;;;;;;23.97;11.80;;;4.50;31.60;;;;;;5227903;28;20445;-49
2022/03/14 01:57:24;;;;;;;22.00;11.80;;;4.40;31.60;;;;;;5207571;28;20710;-50
2022/03/14 01:59:55;;;;;;;23.50;11.47;;;4.40;31.70;;;;;;5227515;28;20226;-50
2022/03/14 02:02:26;;;;;;;29.80;11.40;;;4.40;31.70;;;;;;5209573;28;20687;-51
2022/03/14 02:04:57;;;;;;;37.13;12.50;;;4.30;31.80;;;;;;5202512;28;20437;-54
2022/03/14 02:07:28;;;;;;;27.53;11.93;;;4.30;31.80;;;;;;5209720;28;20465;-51
2022/03/14 02:09:58;;;;;;;23.33;11.90;;;4.30;32.00;;;;;;5227125;28;20179;-49
2022/03/14 02:12:29;;;;;;;25.20;10.70;;;4.30;32.00;;;;;;5228235;28;20213;-49
2022/03/14 02:15:00;;;;;;;21.90;12.30;;;4.20;32.00;;;;;;5227675;28;20568;-49
2022/03/14 02:17:31;;;;;;;21.13;11.50;;;4.20;31.90;;;;;;5226510;28;20465;-51
2022/03/14 02:20:02;;;;;;;21.27;10.30;;;4.20;32.00;;;;;;5210275;28;20229;-51
2022/03/14 02:22:33;;;;;;;26.30;11.87;;;4.20;31.90;;;;;;5227648;28;20215;-49
2022/03/14 02:25:11;;;;;;;23.73;10.80;;;4.20;32.00;;;;;;5227061;28;20483;-49
2022/03/14 02:27:41;;;;;;;25.63;11.73;;;4.20;32.10;;;;;;5223622;28;20194;-49
2022/03/14 02:30:12;;;;;;;30.37;12.23;;;4.20;32.10;;;;;;5225027;28;20422;-51
2022/03/14 02:32:42;;;;;;;29.10;10.97;;;4.10;32.20;;;;;;5223811;28;20323;-49
2022/03/14 02:35:13;;;;;;;26.93;12.17;;;4.10;32.30;;;;;;5225196;28;20183;-49
2022/03/14 02:37:47;;;;;;;24.50;11.73;;;4.00;32.30;;;;;;5225077;28;20179;-49
2022/03/14 02:40:18;;;;;;;29.63;11.50;;;4.10;32.30;;;;;;5208299;28;20191;-49
2022/03/14 02:42:48;;;;;;;24.70;12.10;;;4.10;32.20;;;;;;5209966;28;20441;-50
2022/03/14 02:45:19;;;;;;;26.23;12.30;;;4.10;32.10;;;;;;5207548;28;20760;-50
2022/03/14 02:47:49;;;;;;;22.27;11.70;;;4.10;32.10;;;;;;5223332;28;20207;-52
2022/03/14 02:50:20;;;;;;;24.63;10.33;;;4.10;32.20;;;;;;5222275;28;20206;-50
2022/03/14 02:52:51;;;;;;;31.47;12.07;;;4.00;32.30;;;;;;5210458;28;20171;-49
2022/03/14 02:55:23;;;;;;;25.50;11.43;;;3.90;32.30;;;;;;5209015;28;20179;-49
2022/03/14 02:57:53;;;;;;;26.00;11.40;;;3.90;32.40;;;;;;5224483;28;20724;-51
2022/03/14 03:00:24;;;;;;;25.70;10.50;;;3.90;32.50;;;;;;5225906;28;20426;-49
2022/03/14 03:02:55;;;;;;;30.97;11.17;;;3.80;32.50;;;;;;5224111;28;20627;-48
2022/03/14 03:05:26;;;;;;;20.87;11.60;;;3.80;32.50;;;;;;5222618;28;20333;-49
2022/03/14 03:07:59;;;;;;;24.80;12.17;;;3.80;32.70;;;;;;5228013;28;21011;-49
2022/03/14 03:10:31;;;;;;;26.97;11.27;;;3.80;32.80;;;;;;5225086;28;20251;-49
2022/03/14 03:13:03;;;;;;;26.87;12.40;;;3.80;32.70;;;;;;5209188;28;20430;-50
2022/03/14 03:15:37;;;;;;;26.90;10.80;;;3.70;32.70;;;;;;5221325;28;20442;-50
2022/03/14 03:18:12;;;;;;;20.27;11.97;;;3.80;32.90;;;;;;5225614;28;20534;-49
2022/03/14 03:20:42;;;;;;;22.20;10.43;;;3.70;32.80;;;;;;5203015;28;20471;-50
2022/03/14 03:23:13;;;;;;;24.10;12.20;;;3.70;32.90;;;;;;5221519;28;20445;-51
2022/03/14 03:25:43;;;;;;;21.40;11.50;;;3.70;32.80;;;;;;5223192;28;20182;-49
2022/03/14 03:28:14;;;;;;;25.83;12.03;;;3.70;32.80;;;;;;5226332;28;20611;-49
2022/03/14 03:30:45;;;;;;;29.87;11.73;;;3.80;32.70;;;;;;5224328;28;20336;-49
2022/03/14 03:33:15;;;;;;;24.33;11.50;;;3.80;32.60;;;;;;5202993;28;20235;-51
2022/03/14 03:35:46;;;;;;;28.73;12.83;;;3.70;32.50;;;;;;5224519;28;20325;-51
2022/03/14 03:38:17;;;;;;;21.53;10.73;;;3.70;32.70;;;;;;5223346;28;20598;-50
2022/03/14 03:40:47;;;;;;;20.87;9.77;;;3.70;32.60;;;;;;5207863;28;20775;-49
2022/03/14 03:43:18;;;;;;;28.07;10.90;;;3.80;32.70;;;;;;5207235;28;20434;-49
2022/03/14 03:45:48;;;;;;;25.17;11.87;;;3.70;32.70;;;;;;5190536;28;20194;-49
2022/03/14 03:48:20;;;;;;;23.77;11.17;;;3.70;32.70;;;;;;5204215;28;20210;-50
2022/03/14 03:50:51;;;;;;;23.63;10.97;;;3.60;32.80;;;;;;5218042;28;20237;-50
2022/03/14 03:53:22;;;;;;;22.13;10.43;;;3.60;32.80;;;;;;5224638;28;20498;-49
2022/03/14 03:55:52;;;;;;;18.10;11.43;;;3.60;33.10;;;;;;5209426;28;20186;-49
2022/03/14 03:58:23;;;;;;;33.80;11.40;;;3.60;33.10;;;;;;5225269;28;20194;-49
2022/03/14 04:00:53;;;;;;;31.77;11.33;;;3.50;33.10;;;;;;5218818;28;20219;-50
2022/03/14 04:03:24;;;;;;;16.57;10.10;;;3.50;33.00;;;;;;5202074;28;20195;-50
2022/03/14 04:05:54;;;;;;;23.80;11.50;;;3.50;33.00;;;;;;5218547;28;20658;-50
2022/03/14 04:08:28;;;;;;;25.83;11.17;;;3.50;33.00;;;;;;5225370;28;20218;-49
2022/03/14 04:10:58;;;;;;;25.23;11.30;;;3.50;33.20;;;;;;5205074;28;20253;-50
2022/03/14 04:13:31;;;;;;;21.13;10.90;;;3.40;33.20;;;;;;5223393;28;20476;-49
2022/03/14 04:16:02;;;;;;;31.73;11.67;;;3.50;33.20;;;;;;5223348;28;20236;-49
2022/03/14 04:18:32;;;;;;;24.60;10.77;;;3.50;33.20;;;;;;5209937;28;20931;-50
2022/03/14 04:21:03;;;;;;;29.07;11.57;;;3.40;33.10;;;;;;5224372;28;20195;-49
2022/03/14 04:23:34;;;;;;;23.83;10.90;;;3.40;33.20;;;;;;5205026;28;20182;-49
2022/03/14 04:26:05;;;;;;;15.43;10.30;;;3.40;33.30;;;;;;5224942;28;20506;-49
2022/03/14 04:28:36;;;;;;;22.90;11.27;;;3.30;33.40;;;;;;5220807;28;20201;-50
2022/03/14 04:31:07;;;;;;;20.93;11.13;;;3.30;33.40;;;;;;5220573;28;20658;-50
2022/03/14 04:33:38;;;;;;;23.17;11.50;;;3.30;33.50;;;;;;5220369;28;20429;-50
2022/03/14 04:36:08;;;;;;;33.27;13.00;;;3.30;33.40;;;;;;5206085;28;20481;-50
2022/03/14 04:38:39;;;;;;;27.10;11.17;;;3.40;33.40;;;;;;5205396;28;20178;-50
2022/03/14 04:41:10;;;;;;;32.20;11.23;;;3.30;33.50;;;;;;5222897;28;20218;-49
2022/03/14 04:43:40;;;;;;;18.87;11.50;;;3.30;33.50;;;;;;5191040;28;20175;-48
2022/03/14 04:46:11;;;;;;;31.33;11.70;;;3.30;33.60;;;;;;5225066;28;20183;-49
2022/03/14 04:48:41;;;;;;;23.43;10.90;;;3.30;33.70;;;;;;5207922;28;20229;-49
2022/03/14 04:51:12;;;;;;;25.10;12.23;;;3.30;33.70;;;;;;5223112;28;20203;-49
2022/03/14 04:53:43;;;;;;;23.77;11.50;;;3.30;33.90;;;;;;5221055;28;20194;-51
2022/03/14 04:56:13;;;;;;;20.67;11.17;;;3.20;33.90;;;;;;5221467;28;20621;-51
2022/03/14 04:58:44;;;;;;;25.73;10.80;;;3.20;34.00;;;;;;5221326;28;20180;-50
2022/03/14 05:01:14;;;;;;;27.50;12.30;;;3.20;34.10;;;;;;5224039;28;20211;-49
2022/03/14 05:03:45;;;;;;;23.33;12.10;;;3.10;34.20;;;;;;5222493;28;20221;-51
2022/03/14 05:06:16;;;;;;;23.33;11.40;;;3.10;34.40;;;;;;5207181;28;20179;-50
2022/03/14 05:08:47;;;;;;;24.73;12.23;;;3.00;34.40;;;;;;5205101;28;20231;-50
2022/03/14 05:11:18;;;;;;;29.77;12.40;;;3.00;34.60;;;;;;5206265;28;20479;-48
2022/03/14 05:13:49;;;;;;;25.83;12.33;;;3.00;34.70;;;;;;5218513;28;20548;-50
2022/03/14 05:16:20;;;;;;;33.63;13.37;;;2.90;34.70;;;;;;5222228;28;20760;-51
2022/03/14 05:18:51;;;;;;;26.03;12.97;;;3.00;34.90;;;;;;5205637;28;20184;-50
2022/03/14 05:21:21;;;;;;;20.30;11.30;;;2.90;34.90;;;;;;5206288;28;20460;-49
2022/03/14 05:23:52;;;;;;;25.50;12.70;;;2.90;35.20;;;;;;5223490;28;20210;-49
2022/03/14 05:26:23;;;;;;;26.50;12.77;;;2.80;35.20;;;;;;5208303;28;20259;-50
2022/03/14 05:28:53;;;;;;;29.10;11.50;;;2.80;35.30;;;;;;5228218;28;20203;-48
2022/03/14 05:31:24;;;;;;;23.20;12.73;;;2.80;35.40;;;;;;5226537;28;20329;-49
2022/03/14 05:33:54;;;;;;;23.47;12.57;;;2.80;35.40;;;;;;5208348;28;20179;-51
2022/03/14 05:36:25;;;;;;;38.50;15.07;;;2.80;35.50;;;;;;5226759;28;20328;-50
2022/03/14 05:38:55;;;;;;;30.07;11.97;;;2.80;35.50;;;;;;5224826;28;20574;-49
2022/03/14 05:41:26;;;;;;;27.13;13.23;;;2.70;35.40;;;;;;5249084;22;21217;-49
2022/03/14 05:43:56;;;;;;;28.17;13.00;;;2.80;35.60;;;;;;5288343;28;20644;-48
2022/03/14 05:46:27;;;;;;;26.87;12.57;;;2.70;35.60;;;;;;5285901;27;20173;-49
2022/03/14 05:48:57;;;;;;;20.60;12.63;;;2.70;35.80;;;;;;5285999;28;20208;-48
2022/03/14 05:51:28;;;;;;;24.60;12.90;;;2.70;35.90;;;;;;5275995;28;20618;-48
2022/03/14 05:53:58;;;;;;;25.77;11.73;;;2.80;35.90;;;;;;5266230;28;20267;-47
2022/03/14 05:56:29;;;;;;;24.07;12.63;;;2.90;35.90;;;;;;5263942;28;20508;-48
2022/03/14 05:59:00;;;;;;;26.10;12.33;;;3.30;35.40;;;;;;5267550;28;20189;-48
2022/03/14 06:01:30;;;;;;;29.00;12.63;;;3.50;34.80;;;;;;5257726;28;20253;-47
2022/03/14 06:04:01;;;;;;;36.30;13.70;;;3.60;34.50;;;;;;5256259;28;20260;-48
2022/03/14 06:06:34;;;;;;;23.13;11.47;;;3.80;34.30;;;;;;5263235;28;20193;-47
2022/03/14 06:09:04;;;;;;;29.80;13.40;;;3.80;34.00;;;;;;5265022;28;20205;-49
2022/03/14 06:11:38;;;;;;;21.50;11.47;;;3.90;34.00;;;;;;5264830;28;20456;-50
2022/03/14 06:14:08;;;;;;;33.60;13.10;;;4.20;33.60;;;;;;5264106;28;20184;-48
2022/03/14 06:16:40;;;;;;;30.90;14.10;;;4.40;33.20;;;;;;5257903;28;20434;-47
2022/03/14 06:19:10;;;;;;;31.03;13.73;;;4.30;32.90;;;;;;5262485;28;20269;-50
2022/03/14 06:21:41;;;;;;;33.83;14.40;;;4.20;33.20;;;;;;5264820;28;20593;-49
2022/03/14 06:24:11;;;;;;;26.07;12.37;;;4.20;33.20;;;;;;5265732;28;20188;-48
2022/03/14 06:26:42;;;;;;;21.20;11.00;;;4.30;33.30;;;;;;5260296;28;20612;-49
2022/03/14 06:29:13;;;;;;;30.93;13.50;;;4.80;33.10;;;;;;5262793;28;20566;-50
2022/03/14 06:31:44;;;;;;;29.17;13.30;;;5.60;32.00;;;;;;5262470;28;20569;-48
2022/03/14 06:34:15;;;;;;;30.10;13.20;;;6.30;30.90;;;;;;5262611;28;20443;-50
2022/03/14 06:36:47;;;;;;;29.30;13.47;;;7.20;29.80;;;;;;5264336;28;20178;-48
2022/03/14 06:39:17;;;;;;;29.47;14.30;;;8.60;28.40;;;;;;5259217;28;20428;-48
2022/03/14 06:41:48;;;;;;;26.70;12.13;;;9.60;27.10;;;;;;5237087;28;20516;-49
2022/03/14 06:44:19;;;;;;;30.33;14.37;;;9.90;26.00;;;;;;5264701;28;20511;-49
2022/03/14 06:46:51;;;;;;;29.10;13.07;;;10.30;24.90;;;;;;5260460;28;20195;-48
2022/03/14 06:49:23;;;;;;;27.70;13.70;;;10.60;24.70;;;;;;5258282;28;20458;-47
2022/03/14 06:51:53;;;;;;;30.07;13.53;;;10.80;24.20;;;;;;5263587;28;20448;-50
2022/03/14 06:54:24;;;;;;;30.80;12.43;;;11.00;24.00;;;;;;5266253;28;20801;-49
2022/03/14 06:56:55;;;;;;;43.37;14.10;;;11.20;23.90;;;;;;5261600;28;20172;-51
2022/03/14 06:59:26;;;;;;;32.43;13.53;;;11.70;23.40;;;;;;5258503;28;20208;-48
2022/03/14 07:01:56;;;;;;;26.07;13.63;;;12.10;23.10;;;;;;5260213;28;20986;-48
2022/03/14 07:04:27;;;;;;;25.67;12.50;;;12.10;22.70;;;;;;5262660;28;20187;-57
2022/03/14 07:06:59;;;;;;;37.57;14.23;;;12.10;22.60;;;;;;5258924;28;20196;-48
2022/03/14 07:09:31;;;;;;;27.90;12.00;;;12.20;22.60;;;;;;5260423;28;21608;-47
2022/03/14 07:12:02;;;;;;;24.97;13.07;;;12.40;22.50;;;;;;5261242;28;20816;-48
2022/03/14 07:14:33;;;;;;;25.47;12.73;;;12.40;22.40;;;;;;5255907;28;20439;-48
2022/03/14 07:17:04;;;;;;;30.67;13.77;;;12.80;22.10;;;;;;5264042;28;20585;-50
2022/03/14 07:19:34;;;;;;;30.10;12.90;;;12.20;22.40;;;;;;5259664;28;20221;-48
2022/03/14 07:22:05;;;;;;;25.20;12.93;;;12.50;22.20;;;;;;5264245;28;20222;-49
2022/03/14 07:24:35;;;;;;;27.70;11.57;;;12.70;22.30;;;;;;5261445;28;20277;-51
2022/03/14 07:27:06;;;;;;;33.90;13.13;;;12.90;21.80;;;;;;5260997;28;20641;-48
2022/03/14 07:29:36;;;;;;;22.30;11.67;;;13.10;21.60;;;;;;5261654;28;20326;-48
2022/03/14 07:32:07;;;;;;;24.40;11.53;;;13.20;21.90;;;;;;5258208;28;20742;-50
2022/03/14 07:34:37;;;;;;;31.77;13.87;;;13.50;22.80;;;;;;5258738;28;20192;-48
2022/03/14 07:37:08;;;;;;;32.00;13.03;;;13.80;21.40;;;;;;5265431;28;20200;-50
2022/03/14 07:39:38;;;;;;;26.97;12.93;;;14.20;20.90;;;;;;5240790;28;20190;-49
2022/03/14 07:42:09;;;;;;;26.43;12.53;;;14.70;20.60;;;;;;5260917;28;20209;-48
2022/03/14 07:44:40;;;;;;;19.53;11.93;;;14.80;20.50;;;;;;5254204;28;20195;-49
2022/03/14 07:47:13;;;;;;;28.90;12.47;;;14.80;20.20;;;;;;5260902;28;20439;-49
2022/03/14 07:49:44;;;;;;;28.53;12.60;;;14.30;20.50;;;;;;5266613;28;20185;-48
2022/03/14 07:52:15;;;;;;;29.50;14.10;;;14.20;20.80;;;;;;5261685;28;20955;-48
2022/03/14 07:54:46;;;;;;;21.30;12.50;;;14.70;20.60;;;;;;5248486;28;20448;-48
2022/03/14 07:57:16;;;;;;;28.33;12.43;;;14.90;20.70;;;;;;5257071;28;20189;-49
2022/03/14 07:59:47;;;;;;;24.63;12.40;;;15.00;20.40;;;;;;5259334;28;20339;-49
2022/03/14 08:02:17;;;;;;;34.80;13.07;;;14.60;20.60;;;;;;5264289;28;20285;-49
2022/03/14 08:04:48;;;;;;;23.87;13.13;;;14.00;21.10;;;;;;5259704;28;20220;-51
2022/03/14 08:07:20;;;;;;;31.30;13.67;;;13.40;21.70;;;;;;5262605;28;20185;-50
2022/03/14 08:09:51;;;;;;;28.93;11.00;;;11.70;22.30;;;;;;5261954;28;20265;-50
2022/03/14 08:12:22;;;;;;;23.57;12.80;;;10.50;23.40;;;;;;5259314;28;20511;-49
2022/03/14 08:14:53;;;;;;;23.40;12.20;;;9.80;25.10;;;;;;5258836;28;20170;-50
2022/03/14 08:17:23;;;;;;;27.80;12.27;;;9.20;25.70;;;;;;5261608;28;20496;-49
2022/03/14 08:19:54;;;;;;;22.93;11.57;;;8.70;26.20;;;;;;5264267;28;20171;-48
2022/03/14 08:22:24;;;;;;;21.30;11.80;;;8.30;26.70;;;;;;5261625;28;20198;-51
2022/03/14 08:24:55;;;;;;;19.50;11.53;;;8.20;27.50;;;;;;5260751;28;20175;-49
2022/03/14 08:27:25;;;;;;;20.00;10.37;;;8.30;28.60;;;;;;5260704;28;20195;-50
2022/03/14 08:29:56;;;;;;;28.73;11.80;;;8.70;29.10;;;;;;5262359;28;20250;-49
2022/03/14 08:32:26;;;;;;;29.70;12.27;;;9.00;27.60;;;;;;5260648;28;20205;-51
2022/03/14 08:34:57;;;;;;;23.07;11.43;;;9.30;26.80;;;;;;5261378;28;20173;-51
2022/03/14 08:37:28;;;;;;;22.17;11.43;;;9.30;26.30;;;;;;5259524;28;20245;-49
2022/03/14 08:39:58;;;;;;;19.97;11.73;;;9.10;26.20;;;;;;5256124;28;20189;-50
2022/03/14 08:42:29;;;;;;;18.93;10.43;;;8.90;26.50;;;;;;5265885;28;20201;-51
2022/03/14 08:44:59;;;;;;;20.80;10.70;;;8.70;26.60;;;;;;5258929;28;20176;-50
2022/03/14 08:47:31;;;;;;;24.33;10.60;;;8.60;26.80;;;;;;5254152;28;20181;-50
2022/03/14 08:50:07;;;;;;;19.50;11.30;;;8.50;26.80;;;;;;5260284;28;20185;-49
2022/03/14 08:52:38;;;;;;;17.47;10.13;;;8.50;27.00;;;;;;5256852;28;20462;-50
2022/03/14 08:55:09;;;;;;;24.30;11.47;;;8.50;27.00;;;;;;5273583;28;20439;-49
2022/03/14 08:57:41;;;;;;;18.57;10.80;;;8.50;27.00;;;;;;5262662;28;20427;-50
2022/03/14 09:00:12;;;;;;;23.87;11.90;;;8.40;27.10;;;;;;5264269;28;20198;-52
2022/03/14 09:02:43;;;;;;;19.50;10.57;;;8.50;27.30;;;;;;5262866;28;20441;-49
2022/03/14 09:05:14;;;;;;;24.07;11.23;;;8.50;27.30;;;;;;5265468;28;20432;-49
2022/03/14 09:07:45;;;;;;;19.40;10.47;;;8.50;27.30;;;;;;5265655;28;20454;-49
2022/03/14 09:10:17;;;;;;;15.53;10.80;;;8.60;27.30;;;;;;5261035;28;20265;-49
2022/03/14 09:12:49;;;;;;;17.43;9.70;;;8.70;27.30;;;;;;5249189;28;20193;-48
2022/03/14 09:15:20;;;;;;;14.60;9.50;;;8.80;26.80;;;;;;5265474;28;20419;-50
2022/03/14 09:17:54;;;;;;;13.23;8.80;;;8.90;26.50;;;;;;5262923;28;20446;-52
2022/03/14 09:20:29;;;;;;;16.77;9.90;;;9.00;26.50;;;;;;5261995;28;20177;-51
2022/03/14 09:23:00;;;;;;;17.67;10.43;;;9.10;26.30;;;;;;5266493;28;20466;-50
2022/03/14 09:25:30;;;;;;;13.80;9.33;;;9.00;26.10;;;;;;5262079;28;20443;-49
2022/03/14 09:28:01;;;;;;;17.97;9.40;;;9.00;26.40;;;;;;5273092;27;20694;-48
2022/03/14 09:30:31;;;;;;;12.00;8.80;;;9.00;26.30;;;;;;5261335;28;21019;-50
2022/03/14 09:33:02;;;;;;;14.60;9.13;;;9.10;26.10;;;;;;5248732;28;20236;-50
2022/03/14 09:35:34;;;;;;;15.30;9.70;;;9.20;26.10;;;;;;5257451;28;20179;-50
2022/03/14 09:38:04;;;;;;;14.93;8.90;;;9.30;26.30;;;;;;5268210;28;20178;-50
2022/03/14 09:40:35;;;;;;;16.97;9.10;;;9.40;26.20;;;;;;5264377;28;20478;-48
2022/03/14 09:43:07;;;;;;;16.40;9.30;;;9.40;26.20;;;;;;5259402;28;20240;-48
2022/03/14 09:45:38;;;;;;;12.47;8.93;;;9.50;26.20;;;;;;5261144;28;20209;-50
2022/03/14 09:48:12;;;;;;;17.13;8.93;;;9.60;26.00;;;;;;5260865;28;20503;-50
2022/03/14 09:50:47;;;;;;;15.77;9.13;;;9.50;25.90;;;;;;5258442;28;20427;-48
2022/03/14 09:53:18;;;;;;;15.53;10.00;;;9.50;26.30;;;;;;5262755;28;20439;-48
2022/03/14 09:55:48;;;;;;;14.90;8.37;;;9.50;26.20;;;;;;5260585;28;20431;-49
2022/03/14 09:58:21;;;;;;;14.50;8.53;;;9.40;25.90;;;;;;5263024;28;20431;-48
2022/03/14 10:00:53;;;;;;;15.10;8.70;;;9.40;26.20;;;;;;5266959;28;20177;-50
2022/03/14 10:03:24;;;;;;;13.77;9.30;;;9.50;26.30;;;;;;5260022;28;20463;-48
2022/03/14 10:05:54;;;;;;;27.97;9.73;;;9.60;26.40;;;;;;5258970;28;20943;-50
2022/03/14 10:08:25;;;;;;;19.50;11.90;;;9.80;26.70;;;;;;5261311;28;20250;-51
2022/03/14 10:10:55;;;;;;;17.00;10.53;;;10.10;25.70;;;;;;5262797;28;20562;-49
2022/03/14 10:13:26;;;;;;;18.13;8.60;;;10.20;25.60;;;;;;5263448;28;20527;-48
2022/03/14 10:15:57;;;;;;;12.20;8.67;;;10.40;25.50;;;;;;5265743;28;20174;-49
2022/03/14 10:18:27;;;;;;;18.50;8.40;;;10.50;25.30;;;;;;5262704;28;20182;-50
2022/03/14 10:21:05;;;;;;;17.27;8.73;;;10.60;25.30;;;;;;5267953;28;20197;-48
2022/03/14 10:23:39;;;;;;;14.33;8.90;;;10.60;24.90;;;;;;5271394;28;20178;-48
2022/03/14 10:26:11;;;;;;;14.53;8.10;;;10.70;24.80;;;;;;5260079;28;20791;-49
2022/03/14 10:28:48;;;;;;;13.63;9.50;;;10.80;24.80;;;;;;5261334;28;20871;-51
2022/03/14 10:31:36;;;;;;;15.77;9.00;;;10.90;24.80;;;;;;5262837;28;20538;-51
2022/03/14 10:34:18;;;;;;;13.40;8.67;;;11.10;24.80;;;;;;5261220;28;20524;-49
2022/03/14 10:36:51;;;;;;;11.50;7.77;;;11.20;24.70;;;;;;5261867;28;20442;-51
2022/03/14 10:39:31;;;;;;;15.80;9.50;;;11.30;24.10;;;;;;5261822;28;20462;-50
2022/03/14 10:42:07;;;;;;;16.93;8.10;;;11.40;24.20;;;;;;5262274;28;20651;-49
2022/03/14 10:44:41;;;;;;;16.57;8.77;;;11.40;24.00;;;;;;5264937;28;20438;-48
2022/03/14 10:47:13;;;;;;;15.60;10.30;;;11.50;24.10;;;;;;5263616;28;20914;-49
2022/03/14 10:49:44;;;;;;;19.97;9.53;;;11.60;24.20;;;;;;5266595;28;20466;-46
2022/03/14 10:52:20;;;;;;;19.50;8.87;;;11.70;24.10;;;;;;5259391;28;20452;-49
2022/03/14 10:54:51;;;;;;;23.07;8.83;;;11.70;24.10;;;;;;5261677;28;20694;-48
2022/03/14 10:57:28;;;;;;;10.10;8.87;;;11.80;24.10;;;;;;5265368;28;20510;-48
2022/03/14 10:59:58;;;;;;;14.30;8.77;;;11.90;24.10;;;;;;5262274;28;20737;-50
2022/03/14 11:02:29;;;;;;;15.23;8.23;;;11.90;24.10;;;;;;5267044;28;20463;-51
2022/03/14 11:05:00;;;;;;;12.20;8.13;;;11.80;24.10;;;;;;5267302;28;20190;-48
2022/03/14 11:07:32;;;;;;;16.43;9.10;;;11.80;24.10;;;;;;5269516;28;20181;-47
2022/03/14 11:10:06;;;;;;;14.57;9.50;;;11.80;24.10;;;;;;5283239;28;20182;-48
2022/03/14 11:12:36;;;;;;;13.93;8.60;;;12.00;24.40;;;;;;5264990;28;20454;-48
2022/03/14 11:15:08;;;;;;;16.40;8.30;;;12.10;24.20;;;;;;5265823;28;20424;-48
2022/03/14 11:17:39;;;;;;;16.07;8.47;;;12.20;24.30;;;;;;5265778;28;20190;-47
2022/03/14 11:20:10;;;;;;;16.13;8.23;;;12.20;24.20;;;;;;5267442;28;20560;-46
2022/03/14 11:22:43;;;;;;;24.43;8.40;;;12.30;24.10;;;;;;5267902;28;20679;-49
2022/03/14 11:25:14;;;;;;;13.03;9.77;;;12.40;24.10;;;;;;5251737;28;20457;-47
2022/03/14 11:27:45;;;;;;;20.00;8.70;;;12.50;24.20;;;;;;5267378;28;20492;-46
2022/03/14 11:30:17;;;;;;;14.90;8.30;;;12.60;24.20;;;;;;5268726;28;20189;-47
2022/03/14 11:32:48;;;;;;;11.90;8.87;;;12.80;24.30;;;;;;5267172;28;20460;-47
2022/03/14 11:35:20;;;;;;;12.97;8.97;;;12.80;24.20;;;;;;5275790;28;20454;-48
2022/03/14 11:37:51;;;;;;;12.47;8.93;;;12.80;24.40;;;;;;5258538;28;20616;-50
2022/03/14 11:40:22;;;;;;;9.20;7.97;;;12.80;24.00;;;;;;5256303;28;20826;-48
2022/03/14 11:42:53;;;;;;;17.60;9.13;;;12.80;24.10;;;;;;5260865;28;20467;-48
2022/03/14 11:45:24;;;;;;;15.17;8.50;;;13.00;24.20;;;;;;5281005;28;20443;-50
2022/03/14 11:47:55;;;;;;;9.47;8.30;;;12.90;24.10;;;;;;5259728;28;20211;-49
2022/03/14 11:50:26;;;;;;;19.83;9.20;;;13.00;23.70;;;;;;5263229;28;20435;-48
2022/03/14 11:53:03;;;;;;;14.60;8.37;;;12.90;24.00;;;;;;5261007;28;20198;-49
2022/03/14 11:55:33;;;;;;;10.93;8.93;;;13.10;24.10;;;;;;5260806;28;20219;-49
2022/03/14 11:58:04;;;;;;;13.50;8.90;;;13.30;24.00;;;;;;5258970;28;20477;-49
2022/03/14 12:00:35;;;;;;;20.57;8.80;;;13.60;23.50;;;;;;5254205;28;20185;-48
2022/03/14 12:03:07;;;;;;;11.37;7.87;;;13.70;23.30;;;;;;5258008;28;20197;-48
2022/03/14 12:05:38;;;;;;;18.57;7.67;;;14.10;23.30;;;;;;5264763;28;20885;-50
2022/03/14 12:08:14;;;;;;;10.20;7.73;;;14.40;22.90;;;;;;5261719;28;20551;-50
2022/03/14 12:10:45;;;;;;;12.87;9.00;;;14.70;22.70;;;;;;5259620;28;20729;-47
2022/03/14 12:13:42;;;;;;;13.17;9.33;;;14.90;22.80;;;;;;5257582;28;20489;-47
2022/03/14 12:16:42;;;;;;;9.07;7.93;;;14.90;22.60;;;;;;5243937;28;20178;-49
2022/03/14 12:19:30;;;;;;;15.80;8.30;;;14.80;22.60;;;;;;5256485;28;20815;-49
2022/03/14 12:22:02;;;;;;;10.80;8.07;;;14.80;22.90;;;;;;5257304;28;20888;-49
2022/03/14 12:24:36;;;;;;;22.73;8.27;;;14.70;23.00;;;;;;5258816;28;20446;-50
2022/03/14 12:27:33;;;;;;;11.23;8.40;;;14.70;23.20;;;;;;5278293;28;20431;-49
2022/03/14 12:30:06;;;;;;;14.13;8.43;;;14.80;23.00;;;;;;5259165;28;20447;-47
2022/03/14 12:32:43;;;;;;;12.90;7.80;;;14.60;23.10;;;;;;5255103;28;20443;-48
2022/03/14 12:35:16;;;;;;;13.63;9.87;;;14.50;23.40;;;;;;5257033;28;20467;-50
2022/03/14 12:37:55;;;;;;;9.30;7.23;;;14.50;23.80;;;;;;5258637;28;20448;-49
2022/03/14 12:40:26;;;;;;;11.10;8.53;;;14.50;23.80;;;;;;5256864;28;20556;-49
2022/03/14 12:43:25;;;;;;;12.93;9.47;;;14.60;23.60;;;;;;5254733;28;20504;-50
2022/03/14 12:45:58;;;;;;;19.87;10.83;;;14.60;23.30;;;;;;5255007;28;20264;-48
2022/03/14 12:48:31;;;;;;;13.13;9.57;;;14.30;23.60;;;;;;5257965;28;20447;-49
2022/03/14 12:51:07;;;;;;;12.60;9.20;;;14.40;23.70;;;;;;5254542;28;20969;-50
2022/03/14 12:53:44;;;;;;;16.40;9.77;;;14.40;23.80;;;;;;5262358;28;20516;-48
2022/03/14 12:56:20;;;;;;;15.20;9.93;;;14.50;23.80;;;;;;5260937;28;20424;-49
2022/03/14 12:58:53;;;;;;;15.80;8.33;;;14.70;24.10;;;;;;5276119;28;20798;-48